sensor_id;sensor_type;location;lat;lon;timestamp;P1;durP1;ratioP1;P2;durP2;ratioP2
19113;SDS011;9689;51.052;13.772;2023-05-23T00:01:15;9.80;;;4.05;;
19113;SDS011;9689;51.052;13.772;2023-05-23T00:06:18;8.00;;;3.95;;
19113;SDS011;9689;51.052;13.772;2023-05-23T00:11:20;9.77;;;4.25;;
19113;SDS011;9689;51.052;13.772;2023-05-23T00:16:26;8.57;;;4.38;;
19113;SDS011;9689;51.052;13.772;2023-05-23T00:21:27;7.95;;;3.95;;
19113;SDS011;9689;51.052;13.772;2023-05-23T00:26:28;7.55;;;3.70;;
19113;SDS011;9689;51.052;13.772;2023-05-23T00:31:31;7.93;;;4.03;;
19113;SDS011;9689;51.052;13.772;2023-05-23T00:36:31;7.03;;;3.90;;
19113;SDS011;9689;51.052;13.772;2023-05-23T00:41:35;8.57;;;4.47;;
19113;SDS011;9689;51.052;13.772;2023-05-23T00:46:37;21.58;;;5.78;;
19113;SDS011;9689;51.052;13.772;2023-05-23T00:51:39;13.45;;;6.20;;
19113;SDS011;9689;51.052;13.772;2023-05-23T00:56:41;21.67;;;7.57;;
19113;SDS011;9689;51.052;13.772;2023-05-23T01:01:44;14.93;;;7.45;;
19113;SDS011;9689;51.052;13.772;2023-05-23T01:06:46;31.95;;;9.35;;
19113;SDS011;9689;51.052;13.772;2023-05-23T01:11:49;20.80;;;8.10;;
19113;SDS011;9689;51.052;13.772;2023-05-23T01:16:59;15.55;;;8.38;;
19113;SDS011;9689;51.052;13.772;2023-05-23T01:22:10;14.20;;;8.15;;
19113;SDS011;9689;51.052;13.772;2023-05-23T01:27:19;16.77;;;8.95;;
19113;SDS011;9689;51.052;13.772;2023-05-23T01:32:30;17.70;;;7.88;;
19113;SDS011;9689;51.052;13.772;2023-05-23T01:37:31;16.88;;;8.20;;
19113;SDS011;9689;51.052;13.772;2023-05-23T01:42:32;19.67;;;8.23;;
19113;SDS011;9689;51.052;13.772;2023-05-23T01:47:35;21.52;;;9.32;;
19113;SDS011;9689;51.052;13.772;2023-05-23T01:52:38;13.85;;;7.82;;
19113;SDS011;9689;51.052;13.772;2023-05-23T01:57:39;17.33;;;8.98;;
19113;SDS011;9689;51.052;13.772;2023-05-23T02:02:42;14.32;;;8.73;;
19113;SDS011;9689;51.052;13.772;2023-05-23T02:07:43;16.60;;;8.77;;
19113;SDS011;9689;51.052;13.772;2023-05-23T02:12:44;18.50;;;8.65;;
19113;SDS011;9689;51.052;13.772;2023-05-23T02:17:47;17.83;;;8.48;;
19113;SDS011;9689;51.052;13.772;2023-05-23T02:22:48;16.27;;;8.50;;
19113;SDS011;9689;51.052;13.772;2023-05-23T02:27:48;11.30;;;7.72;;
19113;SDS011;9689;51.052;13.772;2023-05-23T02:32:50;14.02;;;7.93;;
19113;SDS011;9689;51.052;13.772;2023-05-23T02:37:51;15.40;;;7.70;;
19113;SDS011;9689;51.052;13.772;2023-05-23T02:42:52;15.95;;;8.82;;
19113;SDS011;9689;51.052;13.772;2023-05-23T02:47:57;18.95;;;8.13;;
19113;SDS011;9689;51.052;13.772;2023-05-23T02:52:58;14.68;;;7.97;;
19113;SDS011;9689;51.052;13.772;2023-05-23T02:57:58;11.25;;;7.78;;
19113;SDS011;9689;51.052;13.772;2023-05-23T03:03:00;15.25;;;7.78;;
19113;SDS011;9689;51.052;13.772;2023-05-23T03:08:01;13.40;;;7.60;;
19113;SDS011;9689;51.052;13.772;2023-05-23T03:13:03;12.77;;;7.47;;
19113;SDS011;9689;51.052;13.772;2023-05-23T03:18:05;14.70;;;7.05;;
19113;SDS011;9689;51.052;13.772;2023-05-23T03:23:08;11.15;;;7.63;;
19113;SDS011;9689;51.052;13.772;2023-05-23T03:28:09;15.45;;;7.60;;
19113;SDS011;9689;51.052;13.772;2023-05-23T03:33:12;11.65;;;6.72;;
19113;SDS011;9689;51.052;13.772;2023-05-23T03:38:13;15.32;;;7.10;;
19113;SDS011;9689;51.052;13.772;2023-05-23T03:43:14;10.15;;;6.75;;
19113;SDS011;9689;51.052;13.772;2023-05-23T03:48:17;11.10;;;6.80;;
19113;SDS011;9689;51.052;13.772;2023-05-23T03:53:19;11.85;;;7.47;;
19113;SDS011;9689;51.052;13.772;2023-05-23T03:58:19;16.30;;;7.55;;
19113;SDS011;9689;51.052;13.772;2023-05-23T04:03:25;11.68;;;7.90;;
19113;SDS011;9689;51.052;13.772;2023-05-23T04:08:26;14.30;;;7.90;;
19113;SDS011;9689;51.052;13.772;2023-05-23T04:13:28;12.95;;;7.60;;
19113;SDS011;9689;51.052;13.772;2023-05-23T04:18:31;18.55;;;7.63;;
19113;SDS011;9689;51.052;13.772;2023-05-23T04:23:33;13.13;;;8.10;;
19113;SDS011;9689;51.052;13.772;2023-05-23T04:28:33;13.75;;;7.40;;
19113;SDS011;9689;51.052;13.772;2023-05-23T04:33:36;14.32;;;7.72;;
19113;SDS011;9689;51.052;13.772;2023-05-23T04:38:38;14.40;;;7.35;;
19113;SDS011;9689;51.052;13.772;2023-05-23T04:43:40;17.45;;;7.18;;
19113;SDS011;9689;51.052;13.772;2023-05-23T04:48:51;13.05;;;7.38;;
19113;SDS011;9689;51.052;13.772;2023-05-23T04:53:53;12.93;;;7.28;;
19113;SDS011;9689;51.052;13.772;2023-05-23T04:58:54;13.90;;;8.32;;
19113;SDS011;9689;51.052;13.772;2023-05-23T05:03:58;17.30;;;10.77;;
19113;SDS011;9689;51.052;13.772;2023-05-23T05:09:00;15.27;;;8.90;;
19113;SDS011;9689;51.052;13.772;2023-05-23T05:14:01;15.20;;;8.77;;
19113;SDS011;9689;51.052;13.772;2023-05-23T05:19:04;12.73;;;7.75;;
19113;SDS011;9689;51.052;13.772;2023-05-23T05:24:05;13.20;;;7.20;;
19113;SDS011;9689;51.052;13.772;2023-05-23T05:29:07;17.60;;;7.78;;
19113;SDS011;9689;51.052;13.772;2023-05-23T05:34:11;14.80;;;8.35;;
19113;SDS011;9689;51.052;13.772;2023-05-23T05:39:12;12.07;;;7.55;;
19113;SDS011;9689;51.052;13.772;2023-05-23T05:44:13;13.32;;;8.02;;
19113;SDS011;9689;51.052;13.772;2023-05-23T05:49:18;14.32;;;9.02;;
19113;SDS011;9689;51.052;13.772;2023-05-23T05:54:19;12.05;;;8.85;;
19113;SDS011;9689;51.052;13.772;2023-05-23T05:59:20;15.38;;;8.63;;
19113;SDS011;9689;51.052;13.772;2023-05-23T06:04:22;14.35;;;8.75;;
19113;SDS011;9689;51.052;13.772;2023-05-23T06:09:25;21.48;;;10.55;;
19113;SDS011;9689;51.052;13.772;2023-05-23T06:14:26;18.38;;;11.95;;
19113;SDS011;9689;51.052;13.772;2023-05-23T06:19:28;20.20;;;12.98;;
19113;SDS011;9689;51.052;13.772;2023-05-23T06:24:31;21.67;;;13.45;;
19113;SDS011;9689;51.052;13.772;2023-05-23T06:29:32;21.35;;;14.77;;
19113;SDS011;9689;51.052;13.772;2023-05-23T06:34:35;19.75;;;14.32;;
19113;SDS011;9689;51.052;13.772;2023-05-23T06:39:38;25.95;;;15.20;;
19113;SDS011;9689;51.052;13.772;2023-05-23T06:44:40;21.55;;;14.65;;
19113;SDS011;9689;51.052;13.772;2023-05-23T06:49:44;18.60;;;12.95;;
19113;SDS011;9689;51.052;13.772;2023-05-23T06:54:47;21.88;;;13.55;;
19113;SDS011;9689;51.052;13.772;2023-05-23T06:59:47;16.45;;;12.38;;
19113;SDS011;9689;51.052;13.772;2023-05-23T07:04:49;19.13;;;12.85;;
19113;SDS011;9689;51.052;13.772;2023-05-23T07:10:10;17.25;;;11.90;;
19113;SDS011;9689;51.052;13.772;2023-05-23T07:15:12;16.95;;;12.13;;
19113;SDS011;9689;51.052;13.772;2023-05-23T07:20:24;14.65;;;11.43;;
19113;SDS011;9689;51.052;13.772;2023-05-23T07:25:31;17.15;;;11.30;;
19113;SDS011;9689;51.052;13.772;2023-05-23T07:30:34;17.73;;;10.88;;
19113;SDS011;9689;51.052;13.772;2023-05-23T07:35:36;14.32;;;9.98;;
19113;SDS011;9689;51.052;13.772;2023-05-23T07:40:37;16.00;;;10.43;;
19113;SDS011;9689;51.052;13.772;2023-05-23T07:45:39;12.15;;;9.38;;
19113;SDS011;9689;51.052;13.772;2023-05-23T07:50:41;13.88;;;8.88;;
19113;SDS011;9689;51.052;13.772;2023-05-23T07:55:44;15.52;;;9.65;;
19113;SDS011;9689;51.052;13.772;2023-05-23T08:00:45;17.90;;;9.50;;
19113;SDS011;9689;51.052;13.772;2023-05-23T08:06:11;13.95;;;8.98;;
19113;SDS011;9689;51.052;13.772;2023-05-23T08:11:12;17.75;;;9.63;;
19113;SDS011;9689;51.052;13.772;2023-05-23T08:23:22;14.75;;;8.82;;
19113;SDS011;9689;51.052;13.772;2023-05-23T08:28:23;16.42;;;9.57;;
19113;SDS011;9689;51.052;13.772;2023-05-23T08:33:26;13.05;;;9.55;;
19113;SDS011;9689;51.052;13.772;2023-05-23T08:38:31;19.80;;;11.23;;
19113;SDS011;9689;51.052;13.772;2023-05-23T08:43:55;15.82;;;9.75;;
19113;SDS011;9689;51.052;13.772;2023-05-23T08:49:01;14.65;;;9.80;;
19113;SDS011;9689;51.052;13.772;2023-05-23T08:54:04;16.90;;;9.30;;
19113;SDS011;9689;51.052;13.772;2023-05-23T08:59:08;16.92;;;9.50;;
19113;SDS011;9689;51.052;13.772;2023-05-23T09:04:40;17.65;;;9.65;;
19113;SDS011;9689;51.052;13.772;2023-05-23T09:09:47;15.60;;;8.98;;
19113;SDS011;9689;51.052;13.772;2023-05-23T09:14:49;14.52;;;9.43;;
19113;SDS011;9689;51.052;13.772;2023-05-23T09:26:57;20.88;;;13.65;;
19113;SDS011;9689;51.052;13.772;2023-05-23T09:31:58;25.05;;;15.20;;
19113;SDS011;9689;51.052;13.772;2023-05-23T09:37:01;24.92;;;17.73;;
19113;SDS011;9689;51.052;13.772;2023-05-23T09:42:04;26.20;;;19.40;;
19113;SDS011;9689;51.052;13.772;2023-05-23T09:47:06;40.35;;;23.58;;
19113;SDS011;9689;51.052;13.772;2023-05-23T09:52:07;42.58;;;25.33;;
19113;SDS011;9689;51.052;13.772;2023-05-23T09:57:09;40.40;;;24.35;;
19113;SDS011;9689;51.052;13.772;2023-05-23T10:02:11;37.63;;;22.92;;
19113;SDS011;9689;51.052;13.772;2023-05-23T10:07:12;37.90;;;22.60;;
19113;SDS011;9689;51.052;13.772;2023-05-23T10:19:02;28.25;;;17.00;;
19113;SDS011;9689;51.052;13.772;2023-05-23T10:38:33;16.50;;;8.57;;
19113;SDS011;9689;51.052;13.772;2023-05-23T10:44:05;12.93;;;8.75;;
19113;SDS011;9689;51.052;13.772;2023-05-23T10:50:00;13.68;;;8.45;;
19113;SDS011;9689;51.052;13.772;2023-05-23T10:55:02;19.73;;;10.43;;
19113;SDS011;9689;51.052;13.772;2023-05-23T11:14:52;12.25;;;8.02;;
19113;SDS011;9689;51.052;13.772;2023-05-23T11:19:54;18.48;;;9.00;;
19113;SDS011;9689;51.052;13.772;2023-05-23T11:31:50;17.30;;;8.65;;
19113;SDS011;9689;51.052;13.772;2023-05-23T11:36:52;15.02;;;8.05;;
19113;SDS011;9689;51.052;13.772;2023-05-23T11:41:59;11.30;;;7.28;;
19113;SDS011;9689;51.052;13.772;2023-05-23T11:47:04;12.20;;;7.38;;
19113;SDS011;9689;51.052;13.772;2023-05-23T11:52:06;11.85;;;8.30;;
19113;SDS011;9689;51.052;13.772;2023-05-23T11:57:08;19.17;;;9.18;;
19113;SDS011;9689;51.052;13.772;2023-05-23T12:02:10;11.18;;;8.00;;
19113;SDS011;9689;51.052;13.772;2023-05-23T12:07:11;16.00;;;8.35;;
19113;SDS011;9689;51.052;13.772;2023-05-23T12:12:12;13.35;;;8.50;;
19113;SDS011;9689;51.052;13.772;2023-05-23T12:17:16;16.55;;;8.60;;
19113;SDS011;9689;51.052;13.772;2023-05-23T12:22:21;10.65;;;7.93;;
19113;SDS011;9689;51.052;13.772;2023-05-23T12:34:22;16.17;;;9.00;;
19113;SDS011;9689;51.052;13.772;2023-05-23T12:39:23;12.55;;;9.23;;
19113;SDS011;9689;51.052;13.772;2023-05-23T12:44:28;12.30;;;9.25;;
19113;SDS011;9689;51.052;13.772;2023-05-23T12:49:31;12.68;;;8.52;;
19113;SDS011;9689;51.052;13.772;2023-05-23T12:54:31;13.05;;;7.10;;
19113;SDS011;9689;51.052;13.772;2023-05-23T12:59:32;12.55;;;5.35;;
19113;SDS011;9689;51.052;13.772;2023-05-23T13:04:34;6.45;;;4.88;;
19113;SDS011;9689;51.052;13.772;2023-05-23T13:09:35;7.85;;;4.80;;
19113;SDS011;9689;51.052;13.772;2023-05-23T13:14:37;6.57;;;4.43;;
19113;SDS011;9689;51.052;13.772;2023-05-23T13:19:39;6.93;;;4.78;;
19113;SDS011;9689;51.052;13.772;2023-05-23T13:24:40;7.25;;;4.40;;
19113;SDS011;9689;51.052;13.772;2023-05-23T13:36:34;6.85;;;4.68;;
19113;SDS011;9689;51.052;13.772;2023-05-23T13:41:35;10.57;;;5.03;;
19113;SDS011;9689;51.052;13.772;2023-05-23T13:46:36;14.32;;;7.03;;
19113;SDS011;9689;51.052;13.772;2023-05-23T13:51:38;9.48;;;6.70;;
19113;SDS011;9689;51.052;13.772;2023-05-23T13:56:40;9.57;;;6.53;;
19113;SDS011;9689;51.052;13.772;2023-05-23T14:01:41;11.05;;;5.57;;
19113;SDS011;9689;51.052;13.772;2023-05-23T14:06:44;8.63;;;5.85;;
19113;SDS011;9689;51.052;13.772;2023-05-23T14:11:44;7.90;;;5.30;;
19113;SDS011;9689;51.052;13.772;2023-05-23T14:16:45;6.88;;;4.82;;
19113;SDS011;9689;51.052;13.772;2023-05-23T14:21:47;8.60;;;5.10;;
19113;SDS011;9689;51.052;13.772;2023-05-23T14:26:49;8.02;;;4.15;;
19113;SDS011;9689;51.052;13.772;2023-05-23T14:38:48;5.80;;;2.70;;
19113;SDS011;9689;51.052;13.772;2023-05-23T14:43:49;3.97;;;2.60;;
19113;SDS011;9689;51.052;13.772;2023-05-23T14:48:50;4.50;;;2.95;;
19113;SDS011;9689;51.052;13.772;2023-05-23T14:53:52;4.75;;;3.45;;
19113;SDS011;9689;51.052;13.772;2023-05-23T14:58:53;5.07;;;3.00;;
19113;SDS011;9689;51.052;13.772;2023-05-23T15:03:55;9.35;;;3.42;;
19113;SDS011;9689;51.052;13.772;2023-05-23T15:08:57;8.52;;;4.10;;
19113;SDS011;9689;51.052;13.772;2023-05-23T15:13:58;6.40;;;3.60;;
19113;SDS011;9689;51.052;13.772;2023-05-23T15:18:59;5.25;;;4.43;;
19113;SDS011;9689;51.052;13.772;2023-05-23T15:24:02;8.55;;;3.97;;
19113;SDS011;9689;51.052;13.772;2023-05-23T15:29:03;6.60;;;5.10;;
19113;SDS011;9689;51.052;13.772;2023-05-23T15:41:10;9.85;;;3.90;;
19113;SDS011;9689;51.052;13.772;2023-05-23T15:46:10;7.15;;;3.90;;
19113;SDS011;9689;51.052;13.772;2023-05-23T15:51:11;8.93;;;4.30;;
19113;SDS011;9689;51.052;13.772;2023-05-23T15:56:14;7.63;;;3.88;;
19113;SDS011;9689;51.052;13.772;2023-05-23T16:01:15;7.13;;;3.30;;
19113;SDS011;9689;51.052;13.772;2023-05-23T16:06:16;5.07;;;3.28;;
19113;SDS011;9689;51.052;13.772;2023-05-23T16:11:18;6.38;;;2.78;;
19113;SDS011;9689;51.052;13.772;2023-05-23T16:16:22;4.13;;;3.25;;
19113;SDS011;9689;51.052;13.772;2023-05-23T16:21:23;5.20;;;3.47;;
19113;SDS011;9689;51.052;13.772;2023-05-23T16:26:25;6.63;;;3.92;;
19113;SDS011;9689;51.052;13.772;2023-05-23T16:31:26;6.03;;;4.30;;
19113;SDS011;9689;51.052;13.772;2023-05-23T16:43:34;6.43;;;5.35;;
19113;SDS011;9689;51.052;13.772;2023-05-23T16:48:35;6.63;;;5.50;;
19113;SDS011;9689;51.052;13.772;2023-05-23T16:53:36;8.13;;;5.55;;
19113;SDS011;9689;51.052;13.772;2023-05-23T16:58:38;7.45;;;4.97;;
19113;SDS011;9689;51.052;13.772;2023-05-23T17:03:40;6.32;;;4.05;;
19113;SDS011;9689;51.052;13.772;2023-05-23T17:08:40;5.70;;;4.60;;
19113;SDS011;9689;51.052;13.772;2023-05-23T17:13:43;5.93;;;4.88;;
19113;SDS011;9689;51.052;13.772;2023-05-23T17:18:43;7.32;;;4.50;;
19113;SDS011;9689;51.052;13.772;2023-05-23T17:23:44;6.20;;;5.20;;
19113;SDS011;9689;51.052;13.772;2023-05-23T17:28:46;9.25;;;5.03;;
19113;SDS011;9689;51.052;13.772;2023-05-23T17:33:47;8.13;;;4.53;;
19113;SDS011;9689;51.052;13.772;2023-05-23T17:45:40;6.32;;;4.45;;
19113;SDS011;9689;51.052;13.772;2023-05-23T17:50:41;4.82;;;3.90;;
19113;SDS011;9689;51.052;13.772;2023-05-23T17:55:43;6.38;;;3.60;;
19113;SDS011;9689;51.052;13.772;2023-05-23T18:00:45;4.68;;;3.40;;
19113;SDS011;9689;51.052;13.772;2023-05-23T18:05:47;5.78;;;3.75;;
19113;SDS011;9689;51.052;13.772;2023-05-23T18:10:49;5.35;;;3.05;;
19113;SDS011;9689;51.052;13.772;2023-05-23T18:15:51;5.43;;;2.90;;
19113;SDS011;9689;51.052;13.772;2023-05-23T18:20:52;4.18;;;3.20;;
19113;SDS011;9689;51.052;13.772;2023-05-23T18:25:53;4.70;;;3.03;;
19113;SDS011;9689;51.052;13.772;2023-05-23T18:30:55;5.10;;;3.97;;
19113;SDS011;9689;51.052;13.772;2023-05-23T18:35:55;4.60;;;3.80;;
19113;SDS011;9689;51.052;13.772;2023-05-23T18:47:56;9.57;;;5.60;;
19113;SDS011;9689;51.052;13.772;2023-05-23T18:52:57;13.20;;;6.22;;
19113;SDS011;9689;51.052;13.772;2023-05-23T18:57:58;10.82;;;6.95;;
19113;SDS011;9689;51.052;13.772;2023-05-23T19:03:01;12.00;;;7.75;;
19113;SDS011;9689;51.052;13.772;2023-05-23T19:08:01;14.68;;;9.40;;
19113;SDS011;9689;51.052;13.772;2023-05-23T19:13:02;18.98;;;11.50;;
19113;SDS011;9689;51.052;13.772;2023-05-23T19:18:05;21.33;;;12.93;;
19113;SDS011;9689;51.052;13.772;2023-05-23T19:23:06;27.90;;;14.07;;
19113;SDS011;9689;51.052;13.772;2023-05-23T19:28:07;26.98;;;14.18;;
19113;SDS011;9689;51.052;13.772;2023-05-23T19:33:09;27.73;;;14.38;;
19113;SDS011;9689;51.052;13.772;2023-05-23T19:38:10;32.47;;;14.30;;
19113;SDS011;9689;51.052;13.772;2023-05-23T19:50:15;27.35;;;11.68;;
19113;SDS011;9689;51.052;13.772;2023-05-23T19:55:16;33.38;;;12.45;;
19113;SDS011;9689;51.052;13.772;2023-05-23T20:00:19;32.20;;;12.50;;
19113;SDS011;9689;51.052;13.772;2023-05-23T20:05:22;25.90;;;11.43;;
19113;SDS011;9689;51.052;13.772;2023-05-23T20:10:23;25.77;;;10.40;;
19113;SDS011;9689;51.052;13.772;2023-05-23T20:15:25;22.83;;;11.00;;
19113;SDS011;9689;51.052;13.772;2023-05-23T20:21:05;28.00;;;10.57;;
19113;SDS011;9689;51.052;13.772;2023-05-23T20:26:06;31.83;;;10.32;;
19113;SDS011;9689;51.052;13.772;2023-05-23T20:31:08;23.63;;;10.85;;
19113;SDS011;9689;51.052;13.772;2023-05-23T20:36:10;27.95;;;8.57;;
19113;SDS011;9689;51.052;13.772;2023-05-23T20:41:11;21.65;;;8.38;;
19113;SDS011;9689;51.052;13.772;2023-05-23T20:53:18;18.38;;;7.90;;
19113;SDS011;9689;51.052;13.772;2023-05-23T20:58:19;24.13;;;7.10;;
19113;SDS011;9689;51.052;13.772;2023-05-23T21:03:20;23.27;;;7.72;;
19113;SDS011;9689;51.052;13.772;2023-05-23T21:08:22;26.45;;;7.13;;
19113;SDS011;9689;51.052;13.772;2023-05-23T21:13:23;19.33;;;7.80;;
19113;SDS011;9689;51.052;13.772;2023-05-23T21:18:24;30.15;;;7.78;;
19113;SDS011;9689;51.052;13.772;2023-05-23T21:23:26;17.88;;;7.28;;
19113;SDS011;9689;51.052;13.772;2023-05-23T21:28:27;18.38;;;7.03;;
19113;SDS011;9689;51.052;13.772;2023-05-23T21:33:29;22.15;;;7.72;;
19113;SDS011;9689;51.052;13.772;2023-05-23T21:38:31;15.82;;;7.00;;
19113;SDS011;9689;51.052;13.772;2023-05-23T21:43:35;19.23;;;6.15;;
19113;SDS011;9689;51.052;13.772;2023-05-23T21:55:35;21.00;;;7.50;;
19113;SDS011;9689;51.052;13.772;2023-05-23T22:00:36;17.92;;;6.65;;
19113;SDS011;9689;51.052;13.772;2023-05-23T22:05:37;27.98;;;6.97;;
19113;SDS011;9689;51.052;13.772;2023-05-23T22:10:39;18.02;;;6.95;;
19113;SDS011;9689;51.052;13.772;2023-05-23T22:15:41;19.13;;;5.90;;
19113;SDS011;9689;51.052;13.772;2023-05-23T22:20:42;16.15;;;6.35;;
19113;SDS011;9689;51.052;13.772;2023-05-23T22:25:44;20.42;;;6.90;;
19113;SDS011;9689;51.052;13.772;2023-05-23T22:30:46;15.38;;;5.65;;
19113;SDS011;9689;51.052;13.772;2023-05-23T22:35:47;21.88;;;5.45;;
19113;SDS011;9689;51.052;13.772;2023-05-23T22:40:49;25.02;;;6.05;;
19113;SDS011;9689;51.052;13.772;2023-05-23T22:45:49;14.43;;;5.65;;
19113;SDS011;9689;51.052;13.772;2023-05-23T22:57:55;14.65;;;4.65;;
19113;SDS011;9689;51.052;13.772;2023-05-23T23:02:56;16.85;;;4.68;;
19113;SDS011;9689;51.052;13.772;2023-05-23T23:07:57;17.38;;;4.75;;
19113;SDS011;9689;51.052;13.772;2023-05-23T23:12:59;18.52;;;5.25;;
19113;SDS011;9689;51.052;13.772;2023-05-23T23:17:59;21.65;;;5.10;;
19113;SDS011;9689;51.052;13.772;2023-05-23T23:23:00;21.35;;;5.63;;
19113;SDS011;9689;51.052;13.772;2023-05-23T23:28:02;27.20;;;5.75;;
19113;SDS011;9689;51.052;13.772;2023-05-23T23:33:03;17.65;;;4.95;;
19113;SDS011;9689;51.052;13.772;2023-05-23T23:38:04;16.23;;;4.47;;
19113;SDS011;9689;51.052;13.772;2023-05-23T23:43:06;23.80;;;4.15;;
19113;SDS011;9689;51.052;13.772;2023-05-23T23:48:07;23.30;;;4.15;;
